createdAt,value
2023-04-27T00:00:56.245Z,96994.66
2023-04-27T00:01:58.264Z,96995.28
2023-04-27T00:03:00.383Z,96997.50
2023-04-27T00:04:04.668Z,96993.13
2023-04-27T00:05:07.036Z,96999.22
2023-04-27T00:06:10.020Z,96999.06
2023-04-27T00:07:12.419Z,96998.22
2023-04-27T00:08:14.264Z,96998.44
2023-04-27T00:09:16.517Z,96997.69
2023-04-27T00:10:18.653Z,97000.50
2023-04-27T00:11:20.482Z,96994.47
2023-04-27T00:12:22.455Z,96992.34
2023-04-27T00:13:24.327Z,96985.97
2023-04-27T00:14:28.853Z,96986.59
2023-04-27T00:15:31.208Z,96983.38
2023-04-27T00:16:33.760Z,96983.03
2023-04-27T00:17:36.388Z,96985.25
2023-04-27T00:18:38.441Z,96983.25
2023-04-27T00:19:42.189Z,96981.50
2023-04-27T00:20:44.885Z,96978.63
2023-04-27T00:21:46.910Z,96976.47
2023-04-27T00:22:48.787Z,96981.28
2023-04-27T00:23:50.716Z,96984.34
2023-04-27T00:24:52.728Z,96983.16
2023-04-27T00:25:54.676Z,96980.31
2023-04-27T00:26:56.829Z,96978.28
2023-04-27T00:27:58.749Z,96987.66
2023-04-27T00:29:00.674Z,96985.69
2023-04-27T00:30:02.601Z,96982.66
2023-04-27T00:31:04.949Z,96981.50
2023-04-27T00:32:07.973Z,96977.91
2023-04-27T00:33:09.936Z,96984.72
2023-04-27T00:34:11.842Z,96985.50
2023-04-27T00:35:13.810Z,96981.13
2023-04-27T00:36:15.704Z,96985.50
2023-04-27T00:37:18.966Z,96975.31
2023-04-27T00:38:20.963Z,96982.28
2023-04-27T00:39:22.850Z,96980.66
2023-04-27T00:40:24.795Z,96976.03
2023-04-27T00:41:26.696Z,96972.00
2023-04-27T00:42:28.564Z,96975.50
2023-04-27T00:43:30.797Z,96970.06
2023-04-27T00:44:32.835Z,96976.97
2023-04-27T00:45:39.594Z,96974.38
2023-04-27T00:46:41.538Z,96985.00
2023-04-27T00:47:44.364Z,96976.88
2023-04-27T00:48:46.647Z,96981.53
2023-04-27T00:49:48.606Z,96977.91
2023-04-27T00:50:50.785Z,96979.09
2023-04-27T00:51:52.626Z,96977.13
2023-04-27T00:52:54.811Z,96975.16
2023-04-27T00:53:57.659Z,96973.97
2023-04-27T00:54:59.753Z,96972.00
2023-04-27T00:56:01.747Z,96975.94
2023-04-27T00:57:04.277Z,96981.16
2023-04-27T00:58:06.301Z,96979.00
2023-04-27T00:59:08.095Z,96976.41
2023-04-27T01:00:11.219Z,96969.25
2023-04-27T01:01:13.234Z,96965.66
2023-04-27T01:02:15.309Z,96971.50
2023-04-27T01:03:17.775Z,96965.22
2023-04-27T01:04:20.415Z,96965.94
2023-04-27T01:05:22.499Z,96970.06
2023-04-27T01:06:24.480Z,96972.66
2023-04-27T01:07:27.219Z,96972.47
2023-04-27T01:08:29.534Z,96966.91
2023-04-27T01:09:31.632Z,96973.56
2023-04-27T01:10:33.643Z,96974.53
2023-04-27T01:11:35.795Z,96966.28
2023-04-27T01:12:37.802Z,96968.09
2023-04-27T01:13:39.588Z,96969.72
2023-04-27T01:14:41.500Z,96970.84
2023-04-27T01:15:46.280Z,96968.00
2023-04-27T01:16:48.240Z,96970.94
2023-04-27T01:17:50.202Z,96974.88
2023-04-27T01:18:52.520Z,96969.53
2023-04-27T01:19:55.890Z,96973.53
2023-04-27T01:20:57.750Z,96971.41
2023-04-27T01:21:59.673Z,96971.06
2023-04-27T01:23:01.752Z,96971.84
2023-04-27T01:24:04.942Z,96973.03
2023-04-27T01:25:08.337Z,96968.97
2023-04-27T01:26:13.805Z,96974.38
2023-04-27T01:27:15.731Z,96973.13
2023-04-27T01:28:17.851Z,96971.16
2023-04-27T01:29:20.237Z,96970.78
2023-04-27T01:30:25.170Z,96971.41
2023-04-27T01:31:27.066Z,96977.22
2023-04-27T01:32:29.251Z,96975.63
2023-04-27T01:33:31.439Z,96968.91
2023-04-27T01:34:33.258Z,96973.84
2023-04-27T01:35:35.121Z,96977.56
2023-04-27T01:36:37.054Z,96971.25
2023-04-27T01:37:39.116Z,96971.66
2023-04-27T01:38:41.361Z,96972.66
2023-04-27T01:39:43.307Z,96976.06
2023-04-27T01:40:45.147Z,96971.88
2023-04-27T01:41:46.990Z,96970.88
2023-04-27T01:42:48.909Z,96973.28
2023-04-27T01:43:50.745Z,96973.19
2023-04-27T01:44:52.679Z,96973.56
2023-04-27T01:45:54.708Z,96973.91
2023-04-27T01:46:56.608Z,96969.97
2023-04-27T01:47:58.479Z,96977.22
2023-04-27T01:49:00.391Z,96974.25
2023-04-27T01:50:02.289Z,96978.31
2023-04-27T01:51:04.379Z,96977.13
2023-04-27T01:52:06.234Z,96970.94
2023-04-27T01:53:08.083Z,96977.75
2023-04-27T01:54:09.911Z,96982.16
2023-04-27T01:55:11.878Z,96978.56
2023-04-27T01:56:13.730Z,96979.38
2023-04-27T01:57:16.873Z,96976.59
2023-04-27T01:58:18.732Z,96981.97
2023-04-27T01:59:20.563Z,96974.72
2023-04-27T02:00:22.493Z,96971.31
2023-04-27T02:01:24.403Z,96974.72
2023-04-27T02:02:26.547Z,96975.50
2023-04-27T02:03:28.762Z,96981.31
2023-04-27T02:04:30.917Z,96976.50
2023-04-27T02:05:32.803Z,96969.97
2023-04-27T02:06:34.701Z,96975.69
2023-04-27T02:07:36.587Z,96968.69
2023-04-27T02:08:38.466Z,96971.94
2023-04-27T02:09:40.459Z,96970.97
2023-04-27T02:10:42.352Z,96971.59
2023-04-27T02:11:44.336Z,96974.81
2023-04-27T02:12:46.215Z,96969.16
2023-04-27T02:13:49.153Z,96965.31
2023-04-27T02:14:50.979Z,96974.72
2023-04-27T02:15:52.986Z,96977.94
2023-04-27T02:16:54.869Z,96980.53
2023-04-27T02:17:57.614Z,96983.13
2023-04-27T02:18:59.916Z,96985.09
2023-04-27T02:20:01.897Z,96977.81
2023-04-27T02:21:08.409Z,96986.63
2023-04-27T02:22:10.342Z,96980.41
2023-04-27T02:23:12.638Z,96990.00
2023-04-27T02:24:14.490Z,96983.66
2023-04-27T02:25:16.822Z,96984.28
2023-04-27T02:26:19.767Z,96986.69
2023-04-27T02:27:21.749Z,96987.50
2023-04-27T02:28:24.271Z,96987.94
2023-04-27T02:29:30.103Z,96986.16
2023-04-27T02:30:32.396Z,96986.81
2023-04-27T02:31:34.283Z,96986.81
2023-04-27T02:32:36.291Z,96986.63
2023-04-27T02:33:38.140Z,96991.88
2023-04-27T02:34:40.107Z,96989.53
2023-04-27T02:35:42.028Z,96992.84
2023-04-27T02:36:43.925Z,96995.81
2023-04-27T02:37:45.985Z,96989.63
2023-04-27T02:38:47.867Z,96981.22
2023-04-27T02:39:49.771Z,96989.53
2023-04-27T02:40:55.360Z,96982.09
2023-04-27T02:41:57.244Z,96988.72
2023-04-27T02:42:59.125Z,96992.94
2023-04-27T02:44:00.993Z,96995.88
2023-04-27T02:45:02.972Z,96992.66
2023-04-27T02:46:05.340Z,96987.47
2023-04-27T02:47:07.334Z,96995.25
2023-04-27T02:48:09.748Z,96999.19
2023-04-27T02:49:11.819Z,96993.38
2023-04-27T02:50:14.214Z,97003.75
2023-04-27T02:51:16.076Z,96995.66
2023-04-27T02:52:17.961Z,97001.16
2023-04-27T02:53:19.851Z,96993.47
2023-04-27T02:54:21.688Z,97000.06
2023-04-27T02:55:23.639Z,97000.44
2023-04-27T02:56:25.448Z,96999.44
2023-04-27T02:57:28.053Z,96993.75
2023-04-27T02:58:29.931Z,97000.38
2023-04-27T02:59:31.786Z,96989.47
2023-04-27T03:00:33.630Z,96990.88
2023-04-27T03:01:35.635Z,96992.34
2023-04-27T03:02:37.742Z,96996.91
2023-04-27T03:03:40.089Z,96987.16
2023-04-27T03:04:42.381Z,96990.16
2023-04-27T03:05:44.388Z,96986.63
2023-04-27T03:06:46.307Z,96990.16
2023-04-27T03:07:48.409Z,96987.41
2023-04-27T03:08:50.242Z,96985.63
2023-04-27T03:09:52.124Z,96976.06
2023-04-27T03:10:53.952Z,96983.03
2023-04-27T03:11:56.304Z,96982.22
2023-04-27T03:12:58.199Z,96985.28
2023-04-27T03:14:00.115Z,96989.03
2023-04-27T03:15:02.048Z,96989.03
2023-04-27T03:16:04.071Z,96986.44
2023-04-27T03:17:06.026Z,96994.84
2023-04-27T03:18:07.964Z,96989.84
2023-04-27T03:19:09.924Z,96986.44
2023-04-27T03:20:12.598Z,96991.63
2023-04-27T03:21:14.689Z,96984.00
2023-04-27T03:22:16.667Z,96983.38
2023-04-27T03:23:18.536Z,96987.41
2023-04-27T03:24:20.384Z,96976.84
2023-04-27T03:25:22.624Z,96979.72
2023-04-27T03:26:24.477Z,96985.53
2023-04-27T03:27:26.350Z,96983.56
2023-04-27T03:28:28.320Z,96982.41
2023-04-27T03:29:30.989Z,96983.84
2023-04-27T03:30:32.945Z,96980.91
2023-04-27T03:31:34.927Z,96976.06
2023-04-27T03:32:36.821Z,96981.63
2023-04-27T03:33:39.378Z,96980.78
2023-04-27T03:34:41.675Z,96974.63
2023-04-27T03:35:43.646Z,96975.53
2023-04-27T03:36:45.521Z,96979.09
2023-04-27T03:37:47.404Z,96979.09
2023-04-27T03:38:49.284Z,96981.88
2023-04-27T03:39:51.338Z,96975.88
2023-04-27T03:40:54.286Z,96978.28
2023-04-27T03:41:56.084Z,96968.69
2023-04-27T03:42:59.151Z,96973.09
2023-04-27T03:44:01.144Z,96980.88
2023-04-27T03:45:04.464Z,96979.28
2023-04-27T03:46:06.587Z,96973.72
2023-04-27T03:47:09.956Z,96978.56
2023-04-27T03:48:11.928Z,96983.56
2023-04-27T03:49:14.054Z,96984.38
2023-04-27T03:50:16.641Z,96980.97
2023-04-27T03:51:18.770Z,96980.63
2023-04-27T03:52:20.593Z,96979.81
2023-04-27T03:53:23.049Z,96985.91
2023-04-27T03:54:24.928Z,96985.91
2023-04-27T03:55:27.083Z,96984.72
2023-04-27T03:56:29.029Z,96988.13
2023-04-27T03:57:30.872Z,96988.13
2023-04-27T03:58:32.753Z,96987.16
2023-04-27T03:59:34.609Z,96980.78
2023-04-27T04:00:37.551Z,96980.63
2023-04-27T04:01:40.334Z,96984.84
2023-04-27T04:02:42.571Z,96985.97
2023-04-27T04:03:45.102Z,96987.16
2023-04-27T04:04:47.568Z,96985.53
2023-04-27T04:05:49.563Z,96979.38
2023-04-27T04:06:51.427Z,96986.53
2023-04-27T04:07:53.492Z,96982.31
2023-04-27T04:08:55.826Z,96989.28
2023-04-27T04:09:57.715Z,96987.50
2023-04-27T04:10:59.677Z,96988.13
2023-04-27T04:12:02.219Z,96990.72
2023-04-27T04:13:04.107Z,96998.88
2023-04-27T04:14:06.261Z,96997.88
2023-04-27T04:15:08.402Z,96985.72
2023-04-27T04:16:10.442Z,96992.34
2023-04-27T04:17:12.416Z,96998.16
2023-04-27T04:18:14.323Z,96993.69
2023-04-27T04:19:16.578Z,96998.41
2023-04-27T04:20:18.783Z,96998.59
2023-04-27T04:21:21.039Z,96999.75
2023-04-27T04:22:23.085Z,96997.00
2023-04-27T04:23:24.965Z,96999.22
2023-04-27T04:24:26.870Z,97002.44
2023-04-27T04:25:28.854Z,96994.31
2023-04-27T04:26:31.123Z,97001.94
2023-04-27T04:27:33.850Z,96997.88
2023-04-27T04:28:37.486Z,96998.59
2023-04-27T04:29:39.545Z,97006.28
2023-04-27T04:30:41.526Z,97001.00
2023-04-27T04:31:43.607Z,97007.16
2023-04-27T04:32:45.586Z,97007.97
2023-04-27T04:33:47.483Z,97011.00
2023-04-27T04:34:51.543Z,97004.69
2023-04-27T04:35:54.044Z,97008.53
2023-04-27T04:36:57.969Z,97008.97
2023-04-27T04:38:00.218Z,97009.41
2023-04-27T04:39:02.114Z,97011.84
2023-04-27T04:40:09.448Z,97007.81
2023-04-27T04:41:11.386Z,97011.38
2023-04-27T04:42:13.269Z,97005.84
2023-04-27T04:43:15.230Z,97014.91
2023-04-27T04:44:17.221Z,97017.13
2023-04-27T04:45:19.301Z,97023.94
2023-04-27T04:46:22.588Z,97014.28
2023-04-27T04:47:24.565Z,97019.16
2023-04-27T04:48:26.452Z,97021.69
2023-04-27T04:49:28.394Z,97018.28
2023-04-27T04:50:30.363Z,97023.91
2023-04-27T04:51:32.266Z,97018.38
2023-04-27T04:52:34.797Z,97022.22
2023-04-27T04:53:37.379Z,97024.03
2023-04-27T04:54:39.296Z,97019.81
2023-04-27T04:55:41.366Z,97021.75
2023-04-27T04:56:43.279Z,97019.00
2023-04-27T04:57:45.123Z,97025.78
2023-04-27T04:58:46.987Z,97028.22
2023-04-27T04:59:48.861Z,97020.44
2023-04-27T05:00:50.922Z,97026.06
2023-04-27T05:01:56.056Z,97022.16
2023-04-27T05:02:58.695Z,97027.00
2023-04-27T05:04:01.359Z,97030.00
2023-04-27T05:05:03.829Z,97022.84
2023-04-27T05:06:05.948Z,97025.66
2023-04-27T05:07:07.956Z,97031.47
2023-04-27T05:08:09.931Z,97030.94
2023-04-27T05:09:12.551Z,97026.19
2023-04-27T05:10:14.618Z,97025.81
2023-04-27T05:11:16.524Z,97027.06
2023-04-27T05:12:18.400Z,97029.34
2023-04-27T05:13:20.965Z,97029.34
2023-04-27T05:14:22.848Z,97025.47
2023-04-27T05:15:24.716Z,97030.66
2023-04-27T05:16:26.982Z,97033.06
2023-04-27T05:17:28.924Z,97042.47
2023-04-27T05:18:30.806Z,97032.91
2023-04-27T05:19:32.747Z,97034.16
2023-04-27T05:20:38.419Z,97031.22
2023-04-27T05:21:40.322Z,97036.03
2023-04-27T05:22:42.239Z,97037.47
2023-04-27T05:23:44.140Z,97036.31
2023-04-27T05:24:46.013Z,97038.53
2023-04-27T05:25:47.910Z,97048.28
2023-04-27T05:26:50.371Z,97043.94
2023-04-27T05:27:52.512Z,97043.38
2023-04-27T05:28:54.399Z,97046.44
2023-04-27T05:29:56.296Z,97046.59
2023-04-27T05:30:58.188Z,97044.34
2023-04-27T05:32:00.361Z,97050.53
2023-04-27T05:33:02.777Z,97043.72
2023-04-27T05:34:04.771Z,97048.28
2023-04-27T05:35:06.747Z,97045.69
2023-04-27T05:36:08.854Z,97053.50
2023-04-27T05:37:11.044Z,97049.91
2023-04-27T05:38:17.728Z,97049.53
2023-04-27T05:39:19.636Z,97047.78
2023-04-27T05:40:22.144Z,97055.75
2023-04-27T05:41:24.126Z,97052.13
2023-04-27T05:42:25.972Z,97048.56
2023-04-27T05:43:28.189Z,97054.03
2023-04-27T05:44:30.127Z,97054.47
2023-04-27T05:45:32.014Z,97057.00
2023-04-27T05:46:34.891Z,97056.19
2023-04-27T05:47:38.001Z,97052.44
2023-04-27T05:48:39.955Z,97060.28
2023-04-27T05:49:41.821Z,97053.13
2023-04-27T05:50:43.798Z,97058.31
2023-04-27T05:51:45.765Z,97051.78
2023-04-27T05:52:47.696Z,97055.81
2023-04-27T05:53:49.708Z,97057.88
2023-04-27T05:54:51.774Z,97060.09
2023-04-27T05:55:54.144Z,97056.97
2023-04-27T05:56:56.029Z,97053.31
2023-04-27T05:58:06.943Z,97052.50
2023-04-27T05:59:10.052Z,97049.28
2023-04-27T06:00:12.969Z,97062.63
2023-04-27T06:01:14.895Z,97060.75
2023-04-27T06:02:16.965Z,97059.56
2023-04-27T06:03:19.083Z,97056.25
2023-04-27T06:04:21.455Z,97059.28
2023-04-27T06:05:23.578Z,97062.97
2023-04-27T06:06:25.454Z,97058.22
2023-04-27T06:07:27.692Z,97061.63
2023-04-27T06:08:30.120Z,97061.16
2023-04-27T06:09:32.155Z,97069.97
2023-04-27T06:10:34.052Z,97067.63
2023-04-27T06:11:35.996Z,97057.50
2023-04-27T06:12:38.238Z,97057.91
2023-04-27T06:13:40.152Z,97062.94
2023-04-27T06:14:42.346Z,97061.97
2023-04-27T06:15:44.378Z,97067.16
2023-04-27T06:16:46.426Z,97061.34
2023-04-27T06:17:48.508Z,97062.31
2023-04-27T06:18:51.002Z,97069.38
2023-04-27T06:19:52.893Z,97067.41
2023-04-27T06:20:59.050Z,97068.03
2023-04-27T06:22:00.992Z,97062.28
2023-04-27T06:23:03.015Z,97070.50
2023-04-27T06:24:04.912Z,97076.34
2023-04-27T06:25:07.099Z,97076.63
2023-04-27T06:26:09.019Z,97076.94
2023-04-27T06:27:11.044Z,97075.00
2023-04-27T06:28:12.942Z,97076.53
2023-04-27T06:29:15.046Z,97073.72
2023-04-27T06:30:17.400Z,97072.59
2023-04-27T06:31:19.405Z,97075.63
2023-04-27T06:32:21.328Z,97079.84
2023-04-27T06:33:23.198Z,97075.91
2023-04-27T06:34:25.092Z,97073.91
2023-04-27T06:35:27.072Z,97075.50
2023-04-27T06:36:28.994Z,97072.13
2023-04-27T06:37:30.985Z,97077.50
2023-04-27T06:38:33.193Z,97074.09
2023-04-27T06:39:35.603Z,97074.19
2023-04-27T06:40:37.694Z,97072.44
2023-04-27T06:41:39.628Z,97068.25
2023-04-27T06:42:41.668Z,97058.81
2023-04-27T06:43:43.534Z,97065.03
2023-04-27T06:44:45.528Z,97069.66
2023-04-27T06:45:47.469Z,97069.09
2023-04-27T06:46:49.447Z,97070.50
2023-04-27T06:47:51.478Z,97067.38
2023-04-27T06:48:53.603Z,97059.81
2023-04-27T06:49:55.493Z,97066.25
2023-04-27T06:50:57.390Z,97071.44
2023-04-27T06:51:59.210Z,97073.69
2023-04-27T06:53:01.190Z,97069.09
2023-04-27T06:54:04.089Z,97069.72
2023-04-27T06:55:06.376Z,97068.97
2023-04-27T06:56:11.853Z,97075.78
2023-04-27T06:57:13.759Z,97074.00
2023-04-27T06:58:15.649Z,97072.81
2023-04-27T06:59:17.708Z,97068.22
2023-04-27T07:00:20.103Z,97072.63
2023-04-27T07:01:21.979Z,97077.25
2023-04-27T07:02:25.696Z,97074.47
2023-04-27T07:03:27.710Z,97070.44
2023-04-27T07:04:30.630Z,97063.63
2023-04-27T07:05:34.075Z,97068.66
2023-04-27T07:06:35.968Z,97075.84
2023-04-27T07:07:37.934Z,97065.63
2023-04-27T07:08:39.748Z,97073.78
2023-04-27T07:09:41.679Z,97072.63
2023-04-27T07:10:43.684Z,97070.06
2023-04-27T07:11:45.560Z,97068.88
2023-04-27T07:12:47.496Z,97065.75
2023-04-27T07:13:49.419Z,97061.94
2023-04-27T07:14:51.374Z,97057.53
2023-04-27T07:15:59.614Z,97052.94
2023-04-27T07:17:01.799Z,97051.97
2023-04-27T07:18:04.382Z,97055.69
2023-04-27T07:19:06.422Z,97058.09
2023-04-27T07:20:08.911Z,97054.56
2023-04-27T07:21:11.454Z,97060.00
2023-04-27T07:22:13.466Z,97053.41
2023-04-27T07:23:15.496Z,97056.03
2023-04-27T07:24:17.307Z,97050.91
2023-04-27T07:25:19.976Z,97056.34
2023-04-27T07:26:24.234Z,97057.56
2023-04-27T07:27:26.845Z,97059.59
2023-04-27T07:28:29.724Z,97060.22
2023-04-27T07:29:32.732Z,97056.59
2023-04-27T07:30:37.043Z,97054.44
2023-04-27T07:31:38.882Z,97058.06
2023-04-27T07:32:42.197Z,97058.47
2023-04-27T07:33:44.595Z,97053.50
2023-04-27T07:34:53.314Z,97053.31
2023-04-27T07:35:56.782Z,97050.72
2023-04-27T07:36:58.845Z,97055.50
2023-04-27T07:38:03.780Z,97058.13
2023-04-27T07:39:06.709Z,97055.72
2023-04-27T07:40:14.711Z,97062.16
2023-04-27T07:41:16.972Z,97055.16
2023-04-27T07:42:19.389Z,97062.34
2023-04-27T07:43:23.309Z,97058.53
2023-04-27T07:44:25.274Z,97059.16
2023-04-27T07:45:32.327Z,97063.78
2023-04-27T07:46:34.578Z,97059.78
2023-04-27T07:47:36.555Z,97057.59
2023-04-27T07:48:38.529Z,97063.06
2023-04-27T07:49:40.646Z,97062.84
2023-04-27T07:50:42.582Z,97069.09
2023-04-27T07:51:44.549Z,97066.72
2023-04-27T07:52:46.418Z,97065.94
2023-04-27T07:53:48.445Z,97066.56
2023-04-27T07:54:50.441Z,97071.78
2023-04-27T07:55:52.351Z,97070.38
2023-04-27T07:56:54.450Z,97071.59
2023-04-27T07:57:57.375Z,97074.81
2023-04-27T07:58:59.386Z,97067.19
2023-04-27T08:00:01.286Z,97068.63
2023-04-27T08:01:03.233Z,97074.44
2023-04-27T08:02:18.467Z,97071.03
2023-04-27T08:03:21.000Z,97067.03
2023-04-27T08:04:23.213Z,97071.25
2023-04-27T08:05:25.821Z,97068.25
2023-04-27T08:06:29.562Z,97069.47
2023-04-27T08:07:32.824Z,97070.44
2023-04-27T08:08:34.865Z,97070.44
2023-04-27T08:09:36.870Z,97064.84
2023-04-27T08:10:38.814Z,97068.69
2023-04-27T08:11:40.816Z,97070.06
2023-04-27T08:12:42.737Z,97072.88
2023-04-27T08:13:44.728Z,97069.69
2023-04-27T08:14:47.390Z,97070.09
2023-04-27T08:15:49.396Z,97066.91
2023-04-27T08:16:52.305Z,97062.09
2023-04-27T08:17:54.270Z,97067.69
2023-04-27T08:18:57.560Z,97065.69
2023-04-27T08:20:00.896Z,97066.88
2023-04-27T08:21:02.955Z,97061.47
2023-04-27T08:22:04.907Z,97066.06
2023-04-27T08:23:06.757Z,97060.84
2023-04-27T08:24:08.790Z,97059.69
2023-04-27T08:25:10.760Z,97056.03
2023-04-27T08:26:16.438Z,97056.44
2023-04-27T08:27:18.308Z,97057.25
2023-04-27T08:28:20.210Z,97056.66
2023-04-27T08:29:28.021Z,97060.28
2023-04-27T08:30:30.770Z,97063.84
2023-04-27T08:31:32.837Z,97059.03
2023-04-27T08:32:34.785Z,97061.25
2023-04-27T08:33:36.764Z,97058.22
2023-04-27T08:34:38.632Z,97063.25
2023-04-27T08:35:40.812Z,97056.81
2023-04-27T08:36:42.799Z,97058.00
2023-04-27T08:37:44.669Z,97057.63
2023-04-27T08:38:46.776Z,97063.44
2023-04-27T08:39:49.095Z,97058.81
2023-04-27T08:40:51.063Z,97062.03
2023-04-27T08:41:52.957Z,97070.28
2023-04-27T08:42:56.420Z,97064.00
2023-04-27T08:43:59.635Z,97068.63
2023-04-27T08:45:01.663Z,97065.00
2023-04-27T08:46:03.621Z,97071.03
2023-04-27T08:47:06.034Z,97074.44
2023-04-27T08:48:08.960Z,97061.97
2023-04-27T08:49:11.194Z,97065.22
2023-04-27T08:50:13.335Z,97069.22
2023-04-27T08:51:15.605Z,97074.03
2023-04-27T08:52:17.656Z,97071.03
2023-04-27T08:53:23.074Z,97072.63
2023-04-27T08:54:24.930Z,97063.59
2023-04-27T08:55:26.779Z,97074.22
2023-04-27T08:56:29.493Z,97072.81
2023-04-27T08:57:31.537Z,97068.38
2023-04-27T08:58:37.246Z,97067.94
2023-04-27T08:59:42.452Z,97067.69
2023-04-27T09:00:45.511Z,97070.06
2023-04-27T09:01:49.476Z,97073.53
2023-04-27T09:02:52.015Z,97069.69
2023-04-27T09:03:58.349Z,97074.47
2023-04-27T09:05:00.705Z,97071.47
2023-04-27T09:06:06.071Z,97069.03
2023-04-27T09:07:12.051Z,97070.28
2023-04-27T09:08:13.957Z,97070.28
2023-04-27T09:09:22.649Z,97063.00
2023-04-27T09:10:24.937Z,97067.81
2023-04-27T09:11:31.775Z,97064.00
2023-04-27T09:12:33.724Z,97069.59
2023-04-27T09:13:36.795Z,97058.13
2023-04-27T09:14:39.162Z,97066.16
2023-04-27T09:15:46.438Z,97060.09
2023-04-27T09:17:00.383Z,97059.41
2023-04-27T09:18:02.479Z,97056.31
2023-04-27T09:19:04.333Z,97056.84
2023-04-27T09:20:13.202Z,97049.81
2023-04-27T09:21:22.786Z,97046.97
2023-04-27T09:22:24.663Z,97048.59
2023-04-27T09:23:30.012Z,97050.94
2023-04-27T09:24:31.908Z,97051.06
2023-04-27T09:25:33.966Z,97051.00
2023-04-27T09:26:36.074Z,97052.03
2023-04-27T09:27:44.255Z,97048.38
2023-04-27T09:28:48.627Z,97050.00
2023-04-27T09:29:50.634Z,97058.66
2023-04-27T09:30:54.341Z,97042.34
2023-04-27T09:31:56.208Z,97046.19
2023-04-27T09:33:01.355Z,97053.47
2023-04-27T09:34:04.079Z,97044.19
2023-04-27T09:35:16.209Z,97050.22
2023-04-27T09:36:18.359Z,97054.09
2023-04-27T09:37:20.503Z,97057.50
2023-04-27T09:38:23.045Z,97047.63
2023-04-27T09:39:25.426Z,97048.81
2023-04-27T09:40:29.814Z,97045.00
2023-04-27T09:41:32.659Z,97042.16
2023-04-27T09:42:34.690Z,97046.19
2023-04-27T09:43:37.114Z,97041.31
2023-04-27T09:44:39.167Z,97030.22
2023-04-27T09:45:41.348Z,97038.22
2023-04-27T09:46:45.882Z,97040.00
2023-04-27T09:47:48.522Z,97031.06
2023-04-27T09:48:51.094Z,97034.44
2023-04-27T09:49:53.087Z,97033.47
2023-04-27T09:50:55.074Z,97026.91
2023-04-27T09:51:59.081Z,97029.91
2023-04-27T09:53:01.072Z,97030.94
2023-04-27T09:54:04.404Z,97038.00
2023-04-27T09:55:09.427Z,97033.78
2023-04-27T09:56:29.774Z,97037.41
2023-04-27T09:57:36.997Z,97036.69
2023-04-27T09:58:49.077Z,97038.72
2023-04-27T09:59:51.109Z,97035.66
2023-04-27T10:01:01.107Z,97038.28
2023-04-27T10:02:17.054Z,97037.47
2023-04-27T10:03:34.619Z,97024.59
2023-04-27T10:04:45.987Z,97022.53
2023-04-27T10:05:48.847Z,97025.91
2023-04-27T10:06:57.797Z,97024.25
2023-04-27T10:08:01.124Z,97024.75
2023-04-27T10:09:06.663Z,97024.31
2023-04-27T10:10:17.110Z,97023.66
2023-04-27T10:11:23.262Z,97023.13
2023-04-27T10:12:28.960Z,97026.81
2023-04-27T10:13:31.924Z,97030.75
2023-04-27T10:14:33.866Z,97032.03
2023-04-27T10:15:40.271Z,97025.25
2023-04-27T10:16:49.208Z,97028.34
2023-04-27T10:17:53.439Z,97019.81
2023-04-27T10:18:55.989Z,97022.59
2023-04-27T10:20:01.898Z,97019.63
2023-04-27T10:21:11.056Z,97024.78
2023-04-27T10:22:13.054Z,97027.41
2023-04-27T10:23:23.304Z,97030.03
2023-04-27T10:24:38.316Z,97026.84
2023-04-27T10:25:40.992Z,97024.78
2023-04-27T10:26:46.790Z,97021.59
2023-04-27T10:27:50.201Z,97027.19
2023-04-27T10:28:59.968Z,97032.81
2023-04-27T10:30:09.062Z,97032.16
2023-04-27T10:31:14.640Z,97026.81
2023-04-27T10:32:21.646Z,97020.28
2023-04-27T10:33:23.725Z,97022.78
2023-04-27T10:34:28.379Z,97024.84
2023-04-27T10:35:53.269Z,97018.88
2023-04-27T10:37:04.866Z,97022.44
2023-04-27T10:38:17.527Z,97017.53
2023-04-27T10:39:29.908Z,97019.00
2023-04-27T10:40:38.854Z,97019.66
2023-04-27T10:41:49.108Z,97027.00
2023-04-27T10:42:51.057Z,97022.00
2023-04-27T10:43:52.953Z,97024.19
2023-04-27T10:44:57.445Z,97018.94
2023-04-27T10:46:10.660Z,97021.00
2023-04-27T10:47:13.747Z,97027.56
2023-04-27T10:48:16.275Z,97018.88
2023-04-27T10:49:18.165Z,97015.78
2023-04-27T10:50:20.198Z,97012.38
2023-04-27T10:51:23.025Z,97010.16
2023-04-27T10:52:24.876Z,96999.94
2023-04-27T10:53:27.291Z,97009.06
2023-04-27T10:54:29.631Z,97011.91
2023-04-27T10:55:31.963Z,96999.06
2023-04-27T10:56:33.857Z,96998.09
2023-04-27T10:57:35.722Z,96999.25
2023-04-27T10:58:48.280Z,97002.63
2023-04-27T10:59:55.741Z,97000.59
2023-04-27T11:00:57.633Z,97002.66
2023-04-27T11:01:59.633Z,97003.28
2023-04-27T11:03:18.850Z,97007.94
2023-04-27T11:04:20.985Z,96996.88
2023-04-27T11:05:25.158Z,97001.47
2023-04-27T11:06:28.621Z,97003.44
2023-04-27T11:07:30.592Z,96991.72
2023-04-27T11:08:34.342Z,97001.25
2023-04-27T11:09:38.137Z,96992.13
2023-04-27T11:10:41.650Z,96987.69
2023-04-27T11:11:46.644Z,96997.59
2023-04-27T11:12:48.729Z,96994.97
2023-04-27T11:13:53.176Z,96996.66
2023-04-27T11:14:58.771Z,96999.28
2023-04-27T11:16:00.859Z,96987.06
2023-04-27T11:17:04.544Z,96992.16
2023-04-27T11:18:07.054Z,96993.22
2023-04-27T11:19:09.001Z,96998.06
2023-04-27T11:20:11.120Z,96994.81
2023-04-27T11:21:14.624Z,96992.66
2023-04-27T11:22:19.779Z,96990.03
2023-04-27T11:23:29.283Z,96992.84
2023-04-27T11:24:31.319Z,96992.69
2023-04-27T11:25:33.268Z,96995.34
2023-04-27T11:26:35.147Z,96992.19
2023-04-27T11:27:38.979Z,96993.94
2023-04-27T11:28:44.765Z,96996.69
2023-04-27T11:29:46.910Z,96985.16
2023-04-27T11:30:55.778Z,96988.28
2023-04-27T11:31:57.824Z,96989.47
2023-04-27T11:32:59.954Z,96999.69
2023-04-27T11:34:01.861Z,96996.69
2023-04-27T11:35:04.033Z,96995.84
2023-04-27T11:36:16.248Z,96997.06
2023-04-27T11:37:25.170Z,96999.63
2023-04-27T11:38:33.110Z,96996.81
2023-04-27T11:39:38.774Z,96996.81
2023-04-27T11:40:42.175Z,96996.69
2023-04-27T11:41:46.639Z,96989.06
2023-04-27T11:42:56.848Z,96992.28
2023-04-27T11:44:04.502Z,96988.72
2023-04-27T11:45:06.946Z,97000.09
2023-04-27T11:46:11.251Z,97000.84
2023-04-27T11:47:18.824Z,96997.47
2023-04-27T11:48:23.316Z,96995.75
2023-04-27T11:49:26.139Z,96987.59
2023-04-27T11:50:28.050Z,96994.69
2023-04-27T11:51:31.632Z,97002.28
2023-04-27T11:52:34.557Z,96997.47
2023-04-27T11:53:37.155Z,96999.41
2023-04-27T11:54:39.064Z,96997.63
2023-04-27T11:55:41.832Z,97004.03
2023-04-27T11:56:43.850Z,96995.34
2023-04-27T11:57:45.740Z,96993.00
2023-04-27T11:58:47.908Z,97001.25
2023-04-27T11:59:49.790Z,96990.38
2023-04-27T12:00:51.799Z,96994.66
2023-04-27T12:01:53.792Z,96995.97
2023-04-27T12:02:55.889Z,96983.25
2023-04-27T12:04:00.716Z,96983.78
2023-04-27T12:05:05.039Z,96989.34
2023-04-27T12:06:27.249Z,96985.88
2023-04-27T12:07:29.110Z,96986.16
2023-04-27T12:08:31.382Z,96975.53
2023-04-27T12:09:33.281Z,96979.25
2023-04-27T12:10:35.202Z,96979.25
2023-04-27T12:11:37.146Z,96979.53
2023-04-27T12:12:39.069Z,96975.53
2023-04-27T12:13:41.087Z,96977.66
2023-04-27T12:14:42.969Z,96977.63
2023-04-27T12:15:44.956Z,96975.47
2023-04-27T12:16:47.554Z,96969.63
2023-04-27T12:17:49.527Z,96972.19
2023-04-27T12:18:51.600Z,96970.78
2023-04-27T12:19:53.454Z,96974.03
2023-04-27T12:20:55.408Z,96972.13